createdAt,value
2022-10-02T00:01:50.031Z,2.13
2022-10-02T00:04:23.661Z,2.20
2022-10-02T00:06:53.167Z,1.52
2022-10-02T00:09:32.575Z,2.60
2022-10-02T00:12:00.350Z,1.85
2022-10-02T00:14:33.604Z,1.98
2022-10-02T00:17:01.396Z,2.10
2022-10-02T00:19:28.023Z,2.28
2022-10-02T00:22:00.541Z,1.90
2022-10-02T00:25:16.577Z,2.33
2022-10-02T00:27:50.827Z,2.35
2022-10-02T00:30:18.545Z,2.40
2022-10-02T00:33:07.170Z,2.00
2022-10-02T00:35:55.907Z,2.33
2022-10-02T00:38:41.396Z,1.95
2022-10-02T00:43:40.171Z,1.88
2022-10-02T00:46:20.065Z,2.65
2022-10-02T00:49:11.193Z,2.13
2022-10-02T00:51:55.850Z,2.22
2022-10-02T00:54:44.736Z,2.13
2022-10-02T00:57:29.414Z,2.30
2022-10-02T01:00:16.221Z,2.33
2022-10-02T01:03:08.172Z,2.10
2022-10-02T01:05:34.732Z,2.17
2022-10-02T01:08:02.466Z,2.50
2022-10-02T01:10:29.624Z,2.03
2022-10-02T01:12:57.756Z,2.20
2022-10-02T01:15:31.240Z,2.20
2022-10-02T01:17:58.399Z,1.98
2022-10-02T01:20:33.470Z,2.55
2022-10-02T01:23:06.026Z,2.00
2022-10-02T01:25:32.641Z,2.15
2022-10-02T01:27:59.303Z,2.72
2022-10-02T01:30:25.936Z,2.78
2022-10-02T01:32:56.374Z,2.28
2022-10-02T01:35:28.127Z,2.08
2022-10-02T01:37:55.842Z,1.92
2022-10-02T01:40:36.569Z,2.28
2022-10-02T01:43:16.990Z,3.05
2022-10-02T01:45:51.251Z,2.45
2022-10-02T01:48:43.796Z,2.43
2022-10-02T01:51:22.048Z,2.50
2022-10-02T01:54:33.239Z,2.63
2022-10-02T01:57:21.065Z,2.38
2022-10-02T02:00:12.466Z,2.10
2022-10-02T02:02:47.118Z,3.33
2022-10-02T02:05:32.771Z,2.88
2022-10-02T02:11:00.325Z,2.40
2022-10-02T02:13:41.222Z,2.30
2022-10-02T02:16:21.778Z,2.35
2022-10-02T02:19:23.858Z,2.70
2022-10-02T02:21:58.603Z,2.30
2022-10-02T02:24:32.878Z,2.60
2022-10-02T02:27:02.045Z,2.10
2022-10-02T02:29:32.889Z,2.38
2022-10-02T02:32:02.641Z,2.55
2022-10-02T02:34:35.212Z,3.05
2022-10-02T02:37:07.139Z,2.50
2022-10-02T02:39:59.251Z,2.53
2022-10-02T02:42:30.200Z,2.63
2022-10-02T02:45:15.366Z,2.63
2022-10-02T02:47:47.636Z,1.98
2022-10-02T02:50:23.251Z,2.42
2022-10-02T02:53:04.216Z,2.40
2022-10-02T02:55:57.507Z,2.28
2022-10-02T02:58:36.298Z,2.60
2022-10-02T03:01:02.946Z,2.15
2022-10-02T03:03:29.607Z,3.25
2022-10-02T03:06:26.401Z,2.50
2022-10-02T03:08:54.848Z,2.70
2022-10-02T03:11:33.982Z,1.90
2022-10-02T03:14:28.031Z,2.38
2022-10-02T03:16:57.449Z,2.78
2022-10-02T03:19:49.800Z,2.55
2022-10-02T03:22:19.228Z,2.25
2022-10-02T03:25:13.684Z,2.22
2022-10-02T03:27:51.174Z,2.88
2022-10-02T03:30:21.890Z,2.50
2022-10-02T03:32:53.419Z,2.53
2022-10-02T03:35:22.473Z,2.72
2022-10-02T03:37:52.745Z,2.25
2022-10-02T03:40:24.281Z,3.42
2022-10-02T03:42:52.585Z,2.30
2022-10-02T03:45:46.204Z,2.53
2022-10-02T03:48:06.136Z,2.33
2022-10-02T03:50:36.359Z,2.03
2022-10-02T03:53:11.153Z,2.35
2022-10-02T03:55:45.098Z,2.92
2022-10-02T03:58:17.526Z,2.33
2022-10-02T04:01:05.685Z,2.47
2022-10-02T04:03:40.448Z,2.30
2022-10-02T04:06:09.519Z,2.13
2022-10-02T04:08:56.561Z,2.80
2022-10-02T04:11:32.359Z,2.58
2022-10-02T04:14:28.473Z,2.53
2022-10-02T04:17:07.412Z,2.80
2022-10-02T04:19:41.829Z,2.67
2022-10-02T04:22:21.666Z,2.97
2022-10-02T04:24:58.618Z,2.67
2022-10-02T04:27:40.336Z,2.92
2022-10-02T04:30:12.701Z,2.50
2022-10-02T04:32:39.306Z,2.55
2022-10-02T04:35:13.397Z,2.63
2022-10-02T04:37:48.629Z,3.17
2022-10-02T04:40:30.043Z,2.63
2022-10-02T04:43:27.149Z,3.22
2022-10-02T04:45:53.642Z,3.40
2022-10-02T04:48:20.180Z,2.95
2022-10-02T04:51:11.046Z,2.75
2022-10-02T04:53:45.700Z,2.88
2022-10-02T04:56:32.857Z,2.50
2022-10-02T04:58:59.268Z,3.25
2022-10-02T05:01:42.524Z,2.97
2022-10-02T05:04:24.756Z,2.90
2022-10-02T05:07:39.430Z,3.65
2022-10-02T05:10:27.706Z,3.05
2022-10-02T05:13:25.111Z,3.35
2022-10-02T05:16:00.889Z,2.95
2022-10-02T05:18:42.550Z,2.60
2022-10-02T05:21:34.489Z,2.33
2022-10-02T05:24:32.709Z,2.80
2022-10-02T05:27:41.871Z,2.47
2022-10-02T05:30:19.186Z,3.20
2022-10-02T05:33:00.933Z,2.17
2022-10-02T05:35:47.571Z,2.80
2022-10-02T05:38:43.341Z,2.38
2022-10-02T05:41:33.875Z,3.20
2022-10-02T05:44:06.478Z,2.97
2022-10-02T05:46:38.706Z,2.90
2022-10-02T05:49:23.903Z,2.85
2022-10-02T05:52:03.817Z,3.03
2022-10-02T05:54:34.904Z,2.15
2022-10-02T05:57:07.412Z,2.58
2022-10-02T05:59:39.435Z,2.08
2022-10-02T06:02:24.403Z,1.95
2022-10-02T06:05:11.569Z,2.25
2022-10-02T06:07:38.414Z,2.08
2022-10-02T06:10:16.442Z,2.38
2022-10-02T06:12:55.601Z,2.15
2022-10-02T06:15:37.423Z,2.80
2022-10-02T06:18:19.919Z,2.40
2022-10-02T06:20:53.997Z,2.65
2022-10-02T06:23:40.875Z,1.67
2022-10-02T06:26:15.584Z,2.03
2022-10-02T06:28:54.130Z,2.60
2022-10-02T06:31:35.951Z,2.65
2022-10-02T06:34:02.557Z,2.20
2022-10-02T06:36:31.796Z,2.13
2022-10-02T06:39:13.506Z,2.20
2022-10-02T06:41:43.993Z,2.25
2022-10-02T06:44:35.509Z,2.10
2022-10-02T06:47:35.137Z,2.95
2022-10-02T06:50:23.980Z,2.60
2022-10-02T06:53:13.781Z,2.35
2022-10-02T06:55:45.906Z,2.10
2022-10-02T06:58:41.962Z,2.45
2022-10-02T07:01:42.699Z,2.28
2022-10-02T07:04:25.981Z,1.67
2022-10-02T07:06:58.304Z,1.90
2022-10-02T07:09:55.900Z,2.47
2022-10-02T07:12:25.069Z,2.80
2022-10-02T07:15:29.560Z,1.92
2022-10-02T07:18:03.816Z,2.17
2022-10-02T07:20:48.682Z,2.30
2022-10-02T07:23:27.266Z,1.73
2022-10-02T07:25:59.599Z,1.88
2022-10-02T07:28:43.630Z,1.73
2022-10-02T07:31:38.835Z,1.67
2022-10-02T07:34:14.596Z,2.47
2022-10-02T07:36:56.701Z,2.00
2022-10-02T07:39:41.931Z,1.52
2022-10-02T07:43:00.408Z,1.77
2022-10-02T07:45:37.525Z,1.73
2022-10-02T07:48:19.340Z,1.50
2022-10-02T07:51:43.686Z,1.58
2022-10-02T07:54:30.343Z,1.90
2022-10-02T07:57:00.723Z,1.70
2022-10-02T07:59:31.379Z,1.75
2022-10-02T08:01:58.799Z,1.83
2022-10-02T08:04:36.138Z,1.50
2022-10-02T08:07:05.334Z,1.70
2022-10-02T08:09:37.863Z,1.83
2022-10-02T08:12:32.321Z,2.05
2022-10-02T08:14:59.845Z,1.92
2022-10-02T08:17:37.858Z,2.03
2022-10-02T08:20:15.011Z,1.55
2022-10-02T08:22:48.015Z,1.77
2022-10-02T08:25:22.388Z,1.80
2022-10-02T08:28:05.562Z,1.45
2022-10-02T08:30:32.146Z,1.30
2022-10-02T08:32:58.695Z,1.40
2022-10-02T08:35:40.224Z,1.40
2022-10-02T08:38:32.479Z,1.85
2022-10-02T08:41:32.780Z,1.88
2022-10-02T08:44:21.405Z,1.40
2022-10-02T08:47:21.896Z,1.85
2022-10-02T08:50:19.958Z,1.70
2022-10-02T08:53:23.627Z,1.30
2022-10-02T08:56:20.299Z,1.08
2022-10-02T08:58:49.916Z,1.42
2022-10-02T09:01:45.371Z,1.67
2022-10-02T09:04:38.127Z,1.35
2022-10-02T09:07:49.986Z,1.10
2022-10-02T09:11:03.982Z,1.25
2022-10-02T09:13:49.882Z,1.30
2022-10-02T09:16:24.992Z,1.23
2022-10-02T09:21:50.982Z,1.10
2022-10-02T09:24:31.112Z,1.30
2022-10-02T09:27:28.982Z,1.27
2022-10-02T09:30:19.466Z,1.38
2022-10-02T09:32:54.900Z,0.88
2022-10-02T09:36:12.809Z,1.10
2022-10-02T09:39:16.699Z,1.15
2022-10-02T09:41:52.411Z,1.55
2022-10-02T09:44:22.458Z,1.20
2022-10-02T09:47:19.048Z,1.02
2022-10-02T09:50:00.782Z,1.00
2022-10-02T09:52:40.613Z,1.15
2022-10-02T09:55:38.393Z,1.02
2022-10-02T09:58:17.077Z,1.40
2022-10-02T10:00:51.283Z,1.10
2022-10-02T10:03:47.880Z,1.70
2022-10-02T10:06:29.213Z,1.42
2022-10-02T10:09:23.730Z,1.30
2022-10-02T10:12:02.780Z,1.52
2022-10-02T10:14:42.833Z,1.65
2022-10-02T10:17:21.387Z,1.30
2022-10-02T10:20:22.172Z,1.20
2022-10-02T10:23:10.716Z,1.05
2022-10-02T10:26:00.060Z,0.98
2022-10-02T10:28:37.922Z,1.20
2022-10-02T10:31:31.603Z,1.10
2022-10-02T10:34:29.226Z,1.30
2022-10-02T10:37:39.430Z,1.10
2022-10-02T10:40:24.144Z,1.20
2022-10-02T10:43:28.435Z,1.03
2022-10-02T10:46:25.236Z,1.13
2022-10-02T10:49:13.101Z,1.10
2022-10-02T10:51:53.466Z,1.30
2022-10-02T10:54:44.746Z,1.10
2022-10-02T10:57:32.853Z,1.20
2022-10-02T11:00:02.807Z,1.52
2022-10-02T11:02:56.406Z,1.60
2022-10-02T11:05:47.437Z,0.90
2022-10-02T11:08:58.429Z,1.30
2022-10-02T11:11:31.485Z,1.10
2022-10-02T11:14:49.099Z,1.23
2022-10-02T11:17:43.109Z,1.30
2022-10-02T11:20:34.563Z,1.58
2022-10-02T11:23:36.434Z,1.30
2022-10-02T11:26:25.133Z,1.42
2022-10-02T11:29:06.843Z,1.40
2022-10-02T11:31:33.272Z,1.30
2022-10-02T11:34:19.764Z,1.50
2022-10-02T12:29:40.958Z,2.03
2022-10-02T12:32:28.098Z,2.42
2022-10-02T12:35:03.660Z,1.88
2022-10-02T12:37:36.374Z,2.53
2022-10-02T12:40:27.312Z,2.05
2022-10-02T12:43:26.979Z,2.60
2022-10-02T12:46:32.417Z,2.35
2022-10-02T12:49:20.247Z,2.17
2022-10-02T12:52:06.055Z,2.17
2022-10-02T12:54:50.913Z,2.30
2022-10-02T12:57:47.053Z,1.98
2022-10-02T13:00:17.154Z,2.22
2022-10-02T13:03:12.741Z,2.40
2022-10-02T13:06:06.876Z,2.03
2022-10-02T13:08:50.343Z,2.22
2022-10-02T13:11:32.846Z,2.70
2022-10-02T13:14:05.315Z,2.38
2022-10-02T13:16:36.777Z,1.77
2022-10-02T13:19:34.149Z,1.98
2022-10-02T13:22:23.784Z,1.90
2022-10-02T13:25:02.605Z,1.67
2022-10-02T13:27:31.901Z,2.38
2022-10-02T13:30:19.687Z,2.50
2022-10-02T13:32:49.964Z,2.47
2022-10-02T13:36:09.077Z,2.33
2022-10-02T13:38:38.524Z,1.90
2022-10-02T13:41:20.309Z,2.08
2022-10-02T13:44:12.177Z,1.77
2022-10-02T13:47:00.085Z,1.88
2022-10-02T13:49:39.795Z,2.30
2022-10-02T13:52:12.307Z,2.25
2022-10-02T13:55:02.430Z,3.05
2022-10-02T13:57:47.180Z,2.15
2022-10-02T14:00:37.519Z,1.97
2022-10-02T14:03:22.029Z,2.30
2022-10-02T14:06:00.566Z,2.75
2022-10-02T14:08:42.516Z,2.47
2022-10-02T14:11:20.216Z,2.40
2022-10-02T14:14:24.481Z,2.55
2022-10-02T14:17:05.767Z,2.40
2022-10-02T14:19:54.364Z,2.50
2022-10-02T14:22:36.022Z,2.33
2022-10-02T14:25:12.531Z,2.45
2022-10-02T14:28:11.116Z,2.65
2022-10-02T14:30:49.749Z,2.30
2022-10-02T14:33:32.587Z,2.22
2022-10-02T14:36:09.254Z,3.30
2022-10-02T14:38:54.060Z,2.35
2022-10-02T14:41:42.700Z,3.00
2022-10-02T14:44:32.391Z,2.80
2022-10-02T14:47:29.036Z,2.55
2022-10-02T14:50:23.696Z,2.30
2022-10-02T14:53:15.240Z,2.50
2022-10-02T14:56:00.189Z,2.40
2022-10-02T14:59:09.741Z,2.58
2022-10-02T15:01:53.912Z,2.53
2022-10-02T15:04:47.728Z,2.78
2022-10-02T15:07:18.168Z,2.17
2022-10-02T15:10:22.206Z,2.10
2022-10-02T15:13:06.922Z,2.70
2022-10-02T15:16:15.976Z,3.22
2022-10-02T15:19:37.139Z,2.40
2022-10-02T15:22:31.616Z,2.53
2022-10-02T15:25:06.566Z,2.75
2022-10-02T15:28:31.817Z,2.50
2022-10-02T15:31:07.245Z,2.25
2022-10-02T15:33:40.476Z,2.47
2022-10-02T15:36:36.558Z,2.40
2022-10-02T15:39:13.743Z,2.60
2022-10-02T15:42:07.175Z,2.70
2022-10-02T15:44:42.532Z,2.65
2022-10-02T15:47:24.601Z,2.95
2022-10-02T15:50:33.443Z,2.47
2022-10-02T15:53:34.652Z,2.60
2022-10-02T15:56:29.212Z,2.47
2022-10-02T15:59:35.229Z,3.15
2022-10-02T16:02:32.457Z,2.65
2022-10-02T16:05:15.159Z,2.78
2022-10-02T16:07:44.785Z,2.70
2022-10-02T16:10:20.298Z,2.70
2022-10-02T16:13:08.652Z,2.63
2022-10-02T16:16:00.747Z,2.92
2022-10-02T16:18:54.514Z,2.33
2022-10-02T16:21:30.896Z,2.50
2022-10-02T16:24:24.744Z,3.33
2022-10-02T16:27:15.667Z,2.70
2022-10-02T16:29:54.512Z,2.53
2022-10-02T16:32:39.316Z,2.35
2022-10-02T16:36:01.106Z,2.97
2022-10-02T16:38:41.874Z,2.90
2022-10-02T16:41:32.773Z,2.95
2022-10-02T16:44:23.151Z,2.92
2022-10-02T16:46:58.808Z,2.80
2022-10-02T16:49:43.339Z,2.55
2022-10-02T16:52:34.654Z,2.90
2022-10-02T16:55:15.012Z,2.88
2022-10-02T16:57:49.338Z,3.42
2022-10-02T17:00:22.518Z,2.53
2022-10-02T17:02:55.972Z,2.78
2022-10-02T17:05:44.384Z,2.80
2022-10-02T17:08:22.949Z,3.35
2022-10-02T17:11:21.452Z,3.28
2022-10-02T17:14:02.909Z,2.78
2022-10-02T17:16:40.235Z,3.50
2022-10-02T17:19:31.805Z,3.00
2022-10-02T17:22:03.829Z,2.65
2022-10-02T17:24:41.532Z,4.50
2022-10-02T17:27:18.079Z,8.13
2022-10-02T17:30:04.907Z,9.13
2022-10-02T17:32:37.674Z,3.90
2022-10-02T17:35:16.432Z,3.72
2022-10-02T17:38:20.278Z,3.50
2022-10-02T17:40:54.169Z,2.97
2022-10-02T17:43:50.597Z,3.42
2022-10-02T17:46:19.983Z,3.03
2022-10-02T17:48:52.253Z,2.95
2022-10-02T17:51:52.718Z,3.40
2022-10-02T17:54:40.771Z,3.92
2022-10-02T17:57:24.005Z,3.83
2022-10-02T18:00:10.012Z,3.88
2022-10-02T18:03:04.352Z,3.85
2022-10-02T18:05:50.459Z,3.40
2022-10-02T18:08:35.487Z,3.50
2022-10-02T18:11:08.023Z,3.10
2022-10-02T18:13:43.526Z,3.85
2022-10-02T18:16:22.135Z,3.50
2022-10-02T18:19:18.131Z,3.88
2022-10-02T18:21:58.896Z,5.22
2022-10-02T18:24:46.008Z,4.53
2022-10-02T18:27:30.712Z,4.30
2022-10-02T18:30:15.898Z,3.87
2022-10-02T18:33:02.254Z,4.03
2022-10-02T18:35:52.390Z,4.65
2022-10-02T18:38:40.549Z,4.32
2022-10-02T18:41:12.919Z,4.15
2022-10-02T18:44:02.313Z,4.15
2022-10-02T18:46:46.689Z,6.15
2022-10-02T18:49:46.936Z,5.25
2022-10-02T18:52:29.619Z,5.55
2022-10-02T18:55:05.820Z,6.20
2022-10-02T18:57:51.565Z,6.63
2022-10-02T19:00:22.151Z,7.50
2022-10-02T19:03:13.422Z,7.20
2022-10-02T19:05:55.469Z,7.22
2022-10-02T19:09:08.558Z,6.93
2022-10-02T19:12:05.024Z,5.97
2022-10-02T19:14:33.109Z,6.07
2022-10-02T19:17:05.935Z,5.40
2022-10-02T19:19:33.162Z,5.78
2022-10-02T19:22:14.884Z,6.20
2022-10-02T19:24:43.983Z,5.40
2022-10-02T19:27:18.000Z,5.53
2022-10-02T19:29:54.339Z,5.25
2022-10-02T19:32:25.640Z,5.63
2022-10-02T19:35:01.417Z,7.22
2022-10-02T19:37:28.336Z,5.40
2022-10-02T19:40:00.628Z,5.63
2022-10-02T19:42:31.105Z,6.30
2022-10-02T19:45:05.912Z,6.10
2022-10-02T19:47:50.163Z,6.70
2022-10-02T19:50:23.243Z,6.15
2022-10-02T19:52:57.354Z,5.70
2022-10-02T19:55:27.298Z,5.68
2022-10-02T19:57:59.338Z,5.10
2022-10-02T20:00:26.100Z,6.75
2022-10-02T20:02:58.858Z,6.50
2022-10-02T20:05:29.086Z,6.00
2022-10-02T20:08:07.080Z,5.88
2022-10-02T20:10:50.299Z,5.68
2022-10-02T20:13:23.087Z,6.05
2022-10-02T20:16:32.240Z,6.28
2022-10-02T20:18:59.040Z,6.93
2022-10-02T20:21:38.505Z,6.43
2022-10-02T20:24:13.888Z,6.45
2022-10-02T20:29:18.607Z,6.60
2022-10-02T20:31:58.268Z,6.68
2022-10-02T20:34:33.726Z,6.22
2022-10-02T20:37:08.528Z,7.53
2022-10-02T20:39:49.572Z,6.30
2022-10-02T20:42:29.466Z,6.85
2022-10-02T20:44:55.790Z,7.13
2022-10-02T20:47:28.630Z,6.85
2022-10-02T20:50:33.094Z,7.30
2022-10-02T20:53:17.616Z,7.40
2022-10-02T20:56:21.788Z,7.85
2022-10-02T20:59:33.195Z,6.63
2022-10-02T21:02:18.315Z,7.63
2022-10-02T21:05:15.302Z,7.38
2022-10-02T21:07:56.759Z,6.93
2022-10-02T21:10:29.116Z,7.38
2022-10-02T21:13:01.394Z,7.63
2022-10-02T21:15:52.366Z,7.57
2022-10-02T21:18:41.935Z,7.38
2022-10-02T21:21:24.587Z,7.13
2022-10-02T21:24:18.803Z,7.75
2022-10-02T21:27:03.695Z,7.45
2022-10-02T21:29:41.387Z,7.97
2022-10-02T21:32:41.591Z,7.03
2022-10-02T21:35:16.560Z,7.38
2022-10-02T21:38:09.159Z,7.13
2022-10-02T21:40:45.614Z,7.35
2022-10-02T21:43:47.998Z,7.28
2022-10-02T21:46:42.573Z,7.43
2022-10-02T21:49:21.075Z,6.65
2022-10-02T21:52:08.740Z,6.25
2022-10-02T21:55:13.246Z,6.05
2022-10-02T21:58:05.183Z,6.30
2022-10-02T22:00:36.614Z,7.25
2022-10-02T22:03:31.111Z,6.40
2022-10-02T22:06:29.995Z,5.40
2022-10-02T22:08:59.357Z,5.93
2022-10-02T22:11:56.231Z,6.40
2022-10-02T22:14:40.867Z,6.75
2022-10-02T22:17:44.788Z,5.60
2022-10-02T22:20:55.772Z,6.95
2022-10-02T22:23:25.299Z,8.98
2022-10-02T22:26:28.985Z,9.20
2022-10-02T22:29:19.264Z,17.02
2022-10-02T22:32:20.197Z,14.50
2022-10-02T22:35:03.813Z,12.15
2022-10-02T22:38:09.593Z,8.10
2022-10-02T22:40:52.305Z,7.93
2022-10-02T22:43:45.785Z,9.70
2022-10-02T22:46:44.010Z,11.93
2022-10-02T22:49:39.918Z,13.75
2022-10-02T22:52:16.016Z,11.18
2022-10-02T22:55:06.481Z,7.82
2022-10-02T22:57:32.933Z,7.50
2022-10-02T23:00:05.944Z,7.63
2022-10-02T23:02:49.200Z,7.20
2022-10-02T23:05:26.025Z,6.43
2022-10-02T23:08:02.748Z,7.38
2022-10-02T23:10:43.515Z,7.20
2022-10-02T23:13:16.404Z,6.80
2022-10-02T23:15:56.844Z,8.23
2022-10-02T23:18:36.502Z,6.30
2022-10-02T23:21:08.453Z,5.63
2022-10-02T23:23:50.793Z,5.07
2022-10-02T23:26:33.279Z,5.50
2022-10-02T23:29:26.268Z,5.63
2022-10-02T23:32:31.485Z,6.80
2022-10-02T23:35:06.740Z,7.10
2022-10-02T23:37:45.550Z,7.05
2022-10-02T23:40:47.851Z,6.82
2022-10-02T23:43:31.323Z,6.55
2022-10-02T23:46:10.359Z,7.30
2022-10-02T23:48:38.670Z,6.82
2022-10-02T23:51:24.028Z,6.88
2022-10-02T23:54:18.552Z,7.75
2022-10-02T23:57:17.516Z,7.38
